sensor_id;sensor_type;location;lat;lon;timestamp;P1;durP1;ratioP1;P2;durP2;ratioP2
6551;SDS011;3309;48.708;9.290;2022-07-22T00:00:21;0.30;;;0.30;;
6551;SDS011;3309;48.708;9.290;2022-07-22T00:02:47;0.30;;;0.30;;
6551;SDS011;3309;48.708;9.290;2022-07-22T00:05:13;0.40;;;0.40;;
6551;SDS011;3309;48.708;9.290;2022-07-22T00:07:39;0.23;;;0.23;;
6551;SDS011;3309;48.708;9.290;2022-07-22T00:10:05;0.30;;;0.30;;
6551;SDS011;3309;48.708;9.290;2022-07-22T00:12:33;0.30;;;0.30;;
6551;SDS011;3309;48.708;9.290;2022-07-22T00:14:59;0.30;;;0.30;;
6551;SDS011;3309;48.708;9.290;2022-07-22T00:17:24;0.23;;;0.23;;
6551;SDS011;3309;48.708;9.290;2022-07-22T00:19:50;0.30;;;0.30;;
6551;SDS011;3309;48.708;9.290;2022-07-22T00:22:15;0.30;;;0.30;;
6551;SDS011;3309;48.708;9.290;2022-07-22T00:24:41;0.27;;;0.27;;
6551;SDS011;3309;48.708;9.290;2022-07-22T00:27:07;0.30;;;0.30;;
6551;SDS011;3309;48.708;9.290;2022-07-22T00:29:32;0.27;;;0.27;;
6551;SDS011;3309;48.708;9.290;2022-07-22T00:31:58;0.30;;;0.30;;
6551;SDS011;3309;48.708;9.290;2022-07-22T00:34:23;0.30;;;0.30;;
6551;SDS011;3309;48.708;9.290;2022-07-22T00:36:49;0.30;;;0.30;;
6551;SDS011;3309;48.708;9.290;2022-07-22T00:39:14;0.30;;;0.30;;
6551;SDS011;3309;48.708;9.290;2022-07-22T00:41:40;0.30;;;0.30;;
6551;SDS011;3309;48.708;9.290;2022-07-22T00:44:07;0.30;;;0.30;;
6551;SDS011;3309;48.708;9.290;2022-07-22T00:46:33;0.30;;;0.30;;
6551;SDS011;3309;48.708;9.290;2022-07-22T00:49:03;0.20;;;0.20;;
6551;SDS011;3309;48.708;9.290;2022-07-22T00:51:30;0.30;;;0.30;;
6551;SDS011;3309;48.708;9.290;2022-07-22T00:53:56;0.30;;;0.30;;
6551;SDS011;3309;48.708;9.290;2022-07-22T00:56:24;0.30;;;0.30;;
6551;SDS011;3309;48.708;9.290;2022-07-22T00:58:51;0.33;;;0.33;;
6551;SDS011;3309;48.708;9.290;2022-07-22T01:01:17;0.30;;;0.30;;
6551;SDS011;3309;48.708;9.290;2022-07-22T01:03:43;0.30;;;0.30;;
6551;SDS011;3309;48.708;9.290;2022-07-22T01:06:09;0.40;;;0.40;;
6551;SDS011;3309;48.708;9.290;2022-07-22T01:08:35;0.30;;;0.30;;
6551;SDS011;3309;48.708;9.290;2022-07-22T01:11:08;0.30;;;0.30;;
6551;SDS011;3309;48.708;9.290;2022-07-22T01:13:45;0.30;;;0.30;;
6551;SDS011;3309;48.708;9.290;2022-07-22T01:16:12;0.30;;;0.30;;
6551;SDS011;3309;48.708;9.290;2022-07-22T01:18:39;0.30;;;0.30;;
6551;SDS011;3309;48.708;9.290;2022-07-22T01:21:06;0.30;;;0.30;;
6551;SDS011;3309;48.708;9.290;2022-07-22T01:23:32;0.30;;;0.30;;
6551;SDS011;3309;48.708;9.290;2022-07-22T01:25:58;0.30;;;0.30;;
6551;SDS011;3309;48.708;9.290;2022-07-22T01:28:24;0.23;;;0.23;;
6551;SDS011;3309;48.708;9.290;2022-07-22T01:30:50;0.30;;;0.30;;
6551;SDS011;3309;48.708;9.290;2022-07-22T01:33:16;0.20;;;0.20;;
6551;SDS011;3309;48.708;9.290;2022-07-22T01:35:43;0.30;;;0.30;;
6551;SDS011;3309;48.708;9.290;2022-07-22T01:38:09;0.30;;;0.30;;
6551;SDS011;3309;48.708;9.290;2022-07-22T01:40:35;0.30;;;0.30;;
6551;SDS011;3309;48.708;9.290;2022-07-22T01:43:00;0.30;;;0.30;;
6551;SDS011;3309;48.708;9.290;2022-07-22T01:45:26;0.30;;;0.30;;
6551;SDS011;3309;48.708;9.290;2022-07-22T01:47:51;0.37;;;0.37;;
6551;SDS011;3309;48.708;9.290;2022-07-22T01:50:17;0.20;;;0.20;;
6551;SDS011;3309;48.708;9.290;2022-07-22T01:52:43;0.30;;;0.30;;
6551;SDS011;3309;48.708;9.290;2022-07-22T01:55:08;0.30;;;0.30;;
6551;SDS011;3309;48.708;9.290;2022-07-22T01:57:36;0.30;;;0.30;;
6551;SDS011;3309;48.708;9.290;2022-07-22T02:00:03;0.30;;;0.30;;
6551;SDS011;3309;48.708;9.290;2022-07-22T02:02:33;0.30;;;0.30;;
6551;SDS011;3309;48.708;9.290;2022-07-22T02:04:59;0.30;;;0.30;;
6551;SDS011;3309;48.708;9.290;2022-07-22T02:07:25;0.27;;;0.27;;
6551;SDS011;3309;48.708;9.290;2022-07-22T02:09:51;0.30;;;0.30;;
6551;SDS011;3309;48.708;9.290;2022-07-22T02:12:17;0.40;;;0.40;;
6551;SDS011;3309;48.708;9.290;2022-07-22T02:14:43;0.30;;;0.30;;
6551;SDS011;3309;48.708;9.290;2022-07-22T02:17:08;0.37;;;0.37;;
6551;SDS011;3309;48.708;9.290;2022-07-22T02:19:34;0.30;;;0.30;;
6551;SDS011;3309;48.708;9.290;2022-07-22T02:22:00;0.30;;;0.30;;
6551;SDS011;3309;48.708;9.290;2022-07-22T02:24:25;0.30;;;0.30;;
6551;SDS011;3309;48.708;9.290;2022-07-22T02:26:51;0.20;;;0.20;;
6551;SDS011;3309;48.708;9.290;2022-07-22T02:29:16;0.37;;;0.37;;
6551;SDS011;3309;48.708;9.290;2022-07-22T02:31:42;0.30;;;0.30;;
6551;SDS011;3309;48.708;9.290;2022-07-22T02:34:07;0.30;;;0.30;;
6551;SDS011;3309;48.708;9.290;2022-07-22T02:36:33;0.37;;;0.37;;
6551;SDS011;3309;48.708;9.290;2022-07-22T02:38:59;0.30;;;0.30;;
6551;SDS011;3309;48.708;9.290;2022-07-22T02:41:24;0.30;;;0.30;;
6551;SDS011;3309;48.708;9.290;2022-07-22T02:43:50;0.30;;;0.30;;
6551;SDS011;3309;48.708;9.290;2022-07-22T02:46:18;0.30;;;0.30;;
6551;SDS011;3309;48.708;9.290;2022-07-22T02:48:45;0.30;;;0.30;;
6551;SDS011;3309;48.708;9.290;2022-07-22T02:51:11;0.40;;;0.40;;
6551;SDS011;3309;48.708;9.290;2022-07-22T02:53:36;0.33;;;0.33;;
6551;SDS011;3309;48.708;9.290;2022-07-22T02:56:02;0.40;;;0.40;;
6551;SDS011;3309;48.708;9.290;2022-07-22T02:58:28;0.30;;;0.30;;
6551;SDS011;3309;48.708;9.290;2022-07-22T03:00:53;0.30;;;0.30;;
6551;SDS011;3309;48.708;9.290;2022-07-22T03:03:19;0.30;;;0.30;;
6551;SDS011;3309;48.708;9.290;2022-07-22T03:05:44;0.30;;;0.30;;
6551;SDS011;3309;48.708;9.290;2022-07-22T03:08:10;0.40;;;0.40;;
6551;SDS011;3309;48.708;9.290;2022-07-22T03:10:36;0.40;;;0.40;;
6551;SDS011;3309;48.708;9.290;2022-07-22T03:13:02;0.30;;;0.30;;
6551;SDS011;3309;48.708;9.290;2022-07-22T03:15:27;0.30;;;0.30;;
6551;SDS011;3309;48.708;9.290;2022-07-22T03:17:53;0.30;;;0.30;;
6551;SDS011;3309;48.708;9.290;2022-07-22T03:20:18;0.30;;;0.30;;
6551;SDS011;3309;48.708;9.290;2022-07-22T03:22:44;0.30;;;0.30;;
6551;SDS011;3309;48.708;9.290;2022-07-22T03:25:10;0.30;;;0.30;;
6551;SDS011;3309;48.708;9.290;2022-07-22T03:27:36;0.37;;;0.37;;
6551;SDS011;3309;48.708;9.290;2022-07-22T03:30:02;0.40;;;0.40;;
6551;SDS011;3309;48.708;9.290;2022-07-22T03:32:29;0.30;;;0.30;;
6551;SDS011;3309;48.708;9.290;2022-07-22T03:34:55;0.40;;;0.40;;
6551;SDS011;3309;48.708;9.290;2022-07-22T03:37:20;0.33;;;0.33;;
6551;SDS011;3309;48.708;9.290;2022-07-22T03:39:46;0.40;;;0.40;;
6551;SDS011;3309;48.708;9.290;2022-07-22T03:42:11;0.40;;;0.40;;
6551;SDS011;3309;48.708;9.290;2022-07-22T03:44:37;0.30;;;0.30;;
6551;SDS011;3309;48.708;9.290;2022-07-22T03:47:02;0.40;;;0.40;;
6551;SDS011;3309;48.708;9.290;2022-07-22T03:49:28;0.40;;;0.40;;
6551;SDS011;3309;48.708;9.290;2022-07-22T03:51:55;0.37;;;0.37;;
6551;SDS011;3309;48.708;9.290;2022-07-22T03:54:21;0.40;;;0.40;;
6551;SDS011;3309;48.708;9.290;2022-07-22T03:56:46;0.40;;;0.40;;
6551;SDS011;3309;48.708;9.290;2022-07-22T03:59:12;0.40;;;0.40;;
6551;SDS011;3309;48.708;9.290;2022-07-22T04:01:38;0.20;;;0.20;;
6551;SDS011;3309;48.708;9.290;2022-07-22T04:04:03;0.30;;;0.30;;
6551;SDS011;3309;48.708;9.290;2022-07-22T04:06:29;0.30;;;0.30;;
6551;SDS011;3309;48.708;9.290;2022-07-22T04:08:55;0.40;;;0.40;;
6551;SDS011;3309;48.708;9.290;2022-07-22T04:11:20;0.30;;;0.30;;
6551;SDS011;3309;48.708;9.290;2022-07-22T04:13:46;0.37;;;0.37;;
6551;SDS011;3309;48.708;9.290;2022-07-22T04:16:11;0.30;;;0.30;;
6551;SDS011;3309;48.708;9.290;2022-07-22T04:18:37;0.30;;;0.30;;
6551;SDS011;3309;48.708;9.290;2022-07-22T04:21:02;0.30;;;0.30;;
6551;SDS011;3309;48.708;9.290;2022-07-22T04:23:28;0.30;;;0.30;;
6551;SDS011;3309;48.708;9.290;2022-07-22T04:25:54;0.40;;;0.40;;
6551;SDS011;3309;48.708;9.290;2022-07-22T04:28:20;0.30;;;0.30;;
6551;SDS011;3309;48.708;9.290;2022-07-22T04:30:46;0.40;;;0.40;;
6551;SDS011;3309;48.708;9.290;2022-07-22T04:33:11;0.40;;;0.40;;
6551;SDS011;3309;48.708;9.290;2022-07-22T04:35:37;0.30;;;0.30;;
6551;SDS011;3309;48.708;9.290;2022-07-22T04:38:03;0.40;;;0.40;;
6551;SDS011;3309;48.708;9.290;2022-07-22T04:40:28;0.30;;;0.30;;
6551;SDS011;3309;48.708;9.290;2022-07-22T04:42:54;0.40;;;0.40;;
6551;SDS011;3309;48.708;9.290;2022-07-22T04:45:19;0.37;;;0.37;;
6551;SDS011;3309;48.708;9.290;2022-07-22T04:47:45;0.40;;;0.40;;
6551;SDS011;3309;48.708;9.290;2022-07-22T04:50:11;0.30;;;0.30;;
6551;SDS011;3309;48.708;9.290;2022-07-22T04:52:36;0.30;;;0.30;;
6551;SDS011;3309;48.708;9.290;2022-07-22T04:55:02;0.40;;;0.40;;
6551;SDS011;3309;48.708;9.290;2022-07-22T04:57:28;0.30;;;0.30;;
6551;SDS011;3309;48.708;9.290;2022-07-22T04:59:53;0.40;;;0.40;;
6551;SDS011;3309;48.708;9.290;2022-07-22T05:02:19;0.30;;;0.30;;
6551;SDS011;3309;48.708;9.290;2022-07-22T05:04:45;0.30;;;0.30;;
6551;SDS011;3309;48.708;9.290;2022-07-22T05:07:11;0.30;;;0.30;;
6551;SDS011;3309;48.708;9.290;2022-07-22T05:09:37;0.30;;;0.30;;
6551;SDS011;3309;48.708;9.290;2022-07-22T05:12:03;0.30;;;0.30;;
6551;SDS011;3309;48.708;9.290;2022-07-22T05:14:28;0.30;;;0.30;;
6551;SDS011;3309;48.708;9.290;2022-07-22T05:16:54;0.30;;;0.30;;
6551;SDS011;3309;48.708;9.290;2022-07-22T05:19:20;0.30;;;0.30;;
6551;SDS011;3309;48.708;9.290;2022-07-22T05:21:45;0.40;;;0.40;;
6551;SDS011;3309;48.708;9.290;2022-07-22T05:24:11;0.30;;;0.30;;
6551;SDS011;3309;48.708;9.290;2022-07-22T05:26:37;0.33;;;0.33;;
6551;SDS011;3309;48.708;9.290;2022-07-22T05:29:02;0.40;;;0.40;;
6551;SDS011;3309;48.708;9.290;2022-07-22T05:31:28;0.20;;;0.20;;
6551;SDS011;3309;48.708;9.290;2022-07-22T05:33:53;0.30;;;0.30;;
6551;SDS011;3309;48.708;9.290;2022-07-22T05:36:19;0.30;;;0.30;;
6551;SDS011;3309;48.708;9.290;2022-07-22T05:38:45;0.30;;;0.30;;
6551;SDS011;3309;48.708;9.290;2022-07-22T05:41:10;0.20;;;0.20;;
6551;SDS011;3309;48.708;9.290;2022-07-22T05:43:36;0.40;;;0.40;;
6551;SDS011;3309;48.708;9.290;2022-07-22T05:46:01;0.33;;;0.33;;
6551;SDS011;3309;48.708;9.290;2022-07-22T05:48:27;0.30;;;0.30;;
6551;SDS011;3309;48.708;9.290;2022-07-22T05:50:53;0.40;;;0.40;;
6551;SDS011;3309;48.708;9.290;2022-07-22T05:53:20;0.40;;;0.40;;
6551;SDS011;3309;48.708;9.290;2022-07-22T05:55:46;0.30;;;0.30;;
6551;SDS011;3309;48.708;9.290;2022-07-22T05:58:11;0.30;;;0.30;;
6551;SDS011;3309;48.708;9.290;2022-07-22T06:00:37;0.30;;;0.30;;
6551;SDS011;3309;48.708;9.290;2022-07-22T06:03:04;0.30;;;0.30;;
6551;SDS011;3309;48.708;9.290;2022-07-22T06:05:30;0.30;;;0.30;;
6551;SDS011;3309;48.708;9.290;2022-07-22T06:07:56;0.37;;;0.37;;
6551;SDS011;3309;48.708;9.290;2022-07-22T06:10:21;0.30;;;0.30;;
6551;SDS011;3309;48.708;9.290;2022-07-22T06:12:47;0.30;;;0.30;;
6551;SDS011;3309;48.708;9.290;2022-07-22T06:15:13;0.30;;;0.30;;
6551;SDS011;3309;48.708;9.290;2022-07-22T06:17:38;0.40;;;0.40;;
6551;SDS011;3309;48.708;9.290;2022-07-22T06:20:04;0.30;;;0.30;;
6551;SDS011;3309;48.708;9.290;2022-07-22T06:22:30;0.30;;;0.30;;
6551;SDS011;3309;48.708;9.290;2022-07-22T06:24:56;0.20;;;0.20;;
6551;SDS011;3309;48.708;9.290;2022-07-22T06:27:21;0.30;;;0.30;;
6551;SDS011;3309;48.708;9.290;2022-07-22T06:29:47;0.20;;;0.20;;
6551;SDS011;3309;48.708;9.290;2022-07-22T06:32:12;0.30;;;0.30;;
6551;SDS011;3309;48.708;9.290;2022-07-22T06:34:38;0.30;;;0.30;;
6551;SDS011;3309;48.708;9.290;2022-07-22T06:37:04;0.30;;;0.30;;
6551;SDS011;3309;48.708;9.290;2022-07-22T06:39:29;0.30;;;0.30;;
6551;SDS011;3309;48.708;9.290;2022-07-22T06:41:55;0.40;;;0.40;;
6551;SDS011;3309;48.708;9.290;2022-07-22T06:44:20;0.30;;;0.30;;
6551;SDS011;3309;48.708;9.290;2022-07-22T06:46:46;0.30;;;0.30;;
6551;SDS011;3309;48.708;9.290;2022-07-22T06:49:11;0.30;;;0.30;;
6551;SDS011;3309;48.708;9.290;2022-07-22T06:51:37;0.30;;;0.30;;
6551;SDS011;3309;48.708;9.290;2022-07-22T06:54:02;0.30;;;0.30;;
6551;SDS011;3309;48.708;9.290;2022-07-22T06:56:28;0.30;;;0.30;;
6551;SDS011;3309;48.708;9.290;2022-07-22T06:58:54;0.30;;;0.30;;
6551;SDS011;3309;48.708;9.290;2022-07-22T07:01:19;0.30;;;0.30;;
6551;SDS011;3309;48.708;9.290;2022-07-22T07:03:45;0.20;;;0.20;;
6551;SDS011;3309;48.708;9.290;2022-07-22T07:06:11;0.30;;;0.30;;
6551;SDS011;3309;48.708;9.290;2022-07-22T07:08:40;0.30;;;0.30;;
6551;SDS011;3309;48.708;9.290;2022-07-22T07:11:06;0.30;;;0.30;;
6551;SDS011;3309;48.708;9.290;2022-07-22T07:13:31;0.30;;;0.30;;
6551;SDS011;3309;48.708;9.290;2022-07-22T07:15:57;0.20;;;0.20;;
6551;SDS011;3309;48.708;9.290;2022-07-22T07:18:23;0.33;;;0.33;;
6551;SDS011;3309;48.708;9.290;2022-07-22T07:20:49;0.30;;;0.30;;
6551;SDS011;3309;48.708;9.290;2022-07-22T07:23:14;0.30;;;0.30;;
6551;SDS011;3309;48.708;9.290;2022-07-22T07:25:40;0.20;;;0.20;;
6551;SDS011;3309;48.708;9.290;2022-07-22T07:28:06;0.30;;;0.30;;
6551;SDS011;3309;48.708;9.290;2022-07-22T07:30:31;0.37;;;0.37;;
6551;SDS011;3309;48.708;9.290;2022-07-22T07:32:57;0.30;;;0.30;;
6551;SDS011;3309;48.708;9.290;2022-07-22T07:35:25;0.30;;;0.30;;
6551;SDS011;3309;48.708;9.290;2022-07-22T07:37:51;0.20;;;0.20;;
6551;SDS011;3309;48.708;9.290;2022-07-22T07:40:17;0.30;;;0.30;;
6551;SDS011;3309;48.708;9.290;2022-07-22T07:42:42;0.30;;;0.30;;
6551;SDS011;3309;48.708;9.290;2022-07-22T07:45:08;0.30;;;0.30;;
6551;SDS011;3309;48.708;9.290;2022-07-22T07:47:34;0.30;;;0.30;;
6551;SDS011;3309;48.708;9.290;2022-07-22T07:49:59;0.27;;;0.27;;
6551;SDS011;3309;48.708;9.290;2022-07-22T07:52:27;0.30;;;0.30;;
6551;SDS011;3309;48.708;9.290;2022-07-22T07:54:52;0.20;;;0.20;;
6551;SDS011;3309;48.708;9.290;2022-07-22T07:57:20;0.20;;;0.20;;
6551;SDS011;3309;48.708;9.290;2022-07-22T07:59:46;0.20;;;0.20;;
6551;SDS011;3309;48.708;9.290;2022-07-22T08:02:12;0.30;;;0.30;;
6551;SDS011;3309;48.708;9.290;2022-07-22T08:04:38;0.30;;;0.30;;
6551;SDS011;3309;48.708;9.290;2022-07-22T08:07:07;0.30;;;0.30;;
6551;SDS011;3309;48.708;9.290;2022-07-22T08:09:32;0.40;;;0.40;;
6551;SDS011;3309;48.708;9.290;2022-07-22T08:12:00;0.40;;;0.40;;
6551;SDS011;3309;48.708;9.290;2022-07-22T08:14:25;0.40;;;0.40;;
6551;SDS011;3309;48.708;9.290;2022-07-22T08:16:51;0.40;;;0.40;;
6551;SDS011;3309;48.708;9.290;2022-07-22T08:19:17;0.40;;;0.40;;
6551;SDS011;3309;48.708;9.290;2022-07-22T08:21:42;0.40;;;0.40;;
6551;SDS011;3309;48.708;9.290;2022-07-22T08:24:08;0.40;;;0.40;;
6551;SDS011;3309;48.708;9.290;2022-07-22T08:26:35;0.40;;;0.40;;
6551;SDS011;3309;48.708;9.290;2022-07-22T08:29:01;0.30;;;0.30;;
6551;SDS011;3309;48.708;9.290;2022-07-22T08:31:28;0.43;;;0.43;;
6551;SDS011;3309;48.708;9.290;2022-07-22T08:33:54;0.50;;;0.50;;
6551;SDS011;3309;48.708;9.290;2022-07-22T08:36:19;0.50;;;0.50;;
6551;SDS011;3309;48.708;9.290;2022-07-22T08:38:45;0.50;;;0.50;;
6551;SDS011;3309;48.708;9.290;2022-07-22T08:41:11;0.50;;;0.50;;
6551;SDS011;3309;48.708;9.290;2022-07-22T08:43:38;0.40;;;0.40;;
6551;SDS011;3309;48.708;9.290;2022-07-22T08:46:07;0.40;;;0.40;;
6551;SDS011;3309;48.708;9.290;2022-07-22T08:48:32;0.40;;;0.40;;
6551;SDS011;3309;48.708;9.290;2022-07-22T08:51:00;0.40;;;0.40;;
6551;SDS011;3309;48.708;9.290;2022-07-22T08:53:26;0.50;;;0.50;;
6551;SDS011;3309;48.708;9.290;2022-07-22T08:55:52;0.50;;;0.50;;
6551;SDS011;3309;48.708;9.290;2022-07-22T08:58:17;0.60;;;0.60;;
6551;SDS011;3309;48.708;9.290;2022-07-22T09:00:43;0.50;;;0.50;;
6551;SDS011;3309;48.708;9.290;2022-07-22T09:03:18;0.50;;;0.50;;
6551;SDS011;3309;48.708;9.290;2022-07-22T09:05:51;0.47;;;0.47;;
6551;SDS011;3309;48.708;9.290;2022-07-22T09:08:17;0.50;;;0.50;;
6551;SDS011;3309;48.708;9.290;2022-07-22T09:10:44;0.30;;;0.30;;
6551;SDS011;3309;48.708;9.290;2022-07-22T09:13:10;0.40;;;0.40;;
6551;SDS011;3309;48.708;9.290;2022-07-22T09:15:47;0.40;;;0.40;;
6551;SDS011;3309;48.708;9.290;2022-07-22T09:18:15;0.50;;;0.50;;
6551;SDS011;3309;48.708;9.290;2022-07-22T09:20:41;0.50;;;0.50;;
6551;SDS011;3309;48.708;9.290;2022-07-22T09:23:12;0.30;;;0.30;;
6551;SDS011;3309;48.708;9.290;2022-07-22T09:25:40;0.40;;;0.40;;
6551;SDS011;3309;48.708;9.290;2022-07-22T09:30:32;0.40;;;0.40;;
6551;SDS011;3309;48.708;9.290;2022-07-22T09:32:59;0.40;;;0.40;;
6551;SDS011;3309;48.708;9.290;2022-07-22T09:35:25;0.40;;;0.40;;
6551;SDS011;3309;48.708;9.290;2022-07-22T09:37:55;0.40;;;0.40;;
6551;SDS011;3309;48.708;9.290;2022-07-22T09:40:23;0.50;;;0.50;;
6551;SDS011;3309;48.708;9.290;2022-07-22T09:42:54;0.50;;;0.50;;
6551;SDS011;3309;48.708;9.290;2022-07-22T09:45:22;0.40;;;0.40;;
6551;SDS011;3309;48.708;9.290;2022-07-22T09:47:49;0.40;;;0.40;;
6551;SDS011;3309;48.708;9.290;2022-07-22T09:52:40;0.40;;;0.40;;
6551;SDS011;3309;48.708;9.290;2022-07-22T09:55:07;0.40;;;0.40;;
6551;SDS011;3309;48.708;9.290;2022-07-22T09:57:33;0.60;;;0.60;;
6551;SDS011;3309;48.708;9.290;2022-07-22T09:59:59;0.50;;;0.50;;
6551;SDS011;3309;48.708;9.290;2022-07-22T10:02:24;0.50;;;0.50;;
6551;SDS011;3309;48.708;9.290;2022-07-22T10:04:52;0.40;;;0.40;;
6551;SDS011;3309;48.708;9.290;2022-07-22T10:07:19;0.50;;;0.50;;
6551;SDS011;3309;48.708;9.290;2022-07-22T10:09:46;0.50;;;0.50;;
6551;SDS011;3309;48.708;9.290;2022-07-22T10:12:12;0.50;;;0.50;;
6551;SDS011;3309;48.708;9.290;2022-07-22T10:14:40;0.50;;;0.50;;
6551;SDS011;3309;48.708;9.290;2022-07-22T10:17:05;0.50;;;0.50;;
6551;SDS011;3309;48.708;9.290;2022-07-22T10:19:31;0.40;;;0.40;;
6551;SDS011;3309;48.708;9.290;2022-07-22T10:21:57;0.53;;;0.53;;
6551;SDS011;3309;48.708;9.290;2022-07-22T10:24:22;0.50;;;0.50;;
6551;SDS011;3309;48.708;9.290;2022-07-22T10:26:49;0.50;;;0.50;;
6551;SDS011;3309;48.708;9.290;2022-07-22T10:32:21;0.43;;;0.43;;
6551;SDS011;3309;48.708;9.290;2022-07-22T10:43:02;0.60;;;0.60;;
6551;SDS011;3309;48.708;9.290;2022-07-22T10:45:42;0.60;;;0.60;;
6551;SDS011;3309;48.708;9.290;2022-07-22T10:48:14;0.50;;;0.50;;
6551;SDS011;3309;48.708;9.290;2022-07-22T10:50:45;0.40;;;0.40;;
6551;SDS011;3309;48.708;9.290;2022-07-22T11:01:00;0.40;;;0.40;;
6551;SDS011;3309;48.708;9.290;2022-07-22T11:03:28;0.40;;;0.40;;
6551;SDS011;3309;48.708;9.290;2022-07-22T11:05:55;0.67;;;0.67;;
6551;SDS011;3309;48.708;9.290;2022-07-22T11:08:21;0.50;;;0.50;;
6551;SDS011;3309;48.708;9.290;2022-07-22T11:10:48;0.60;;;0.60;;
6551;SDS011;3309;48.708;9.290;2022-07-22T11:13:33;0.60;;;0.60;;
6551;SDS011;3309;48.708;9.290;2022-07-22T11:16:13;0.50;;;0.50;;
6551;SDS011;3309;48.708;9.290;2022-07-22T11:21:15;0.50;;;0.50;;
6551;SDS011;3309;48.708;9.290;2022-07-22T11:23:42;0.55;;;0.55;;
6551;SDS011;3309;48.708;9.290;2022-07-22T11:26:09;0.60;;;0.60;;
6551;SDS011;3309;48.708;9.290;2022-07-22T11:28:38;0.43;;;0.43;;
6551;SDS011;3309;48.708;9.290;2022-07-22T11:31:06;0.30;;;0.30;;
6551;SDS011;3309;48.708;9.290;2022-07-22T11:33:32;0.60;;;0.60;;
6551;SDS011;3309;48.708;9.290;2022-07-22T11:36:04;0.50;;;0.50;;
6551;SDS011;3309;48.708;9.290;2022-07-22T11:38:48;0.57;;;0.57;;
6551;SDS011;3309;48.708;9.290;2022-07-22T11:41:17;0.40;;;0.40;;
6551;SDS011;3309;48.708;9.290;2022-07-22T11:46:11;0.70;;;0.70;;
6551;SDS011;3309;48.708;9.290;2022-07-22T11:48:38;0.50;;;0.50;;
6551;SDS011;3309;48.708;9.290;2022-07-22T11:51:05;0.47;;;0.47;;
6551;SDS011;3309;48.708;9.290;2022-07-22T11:53:31;0.60;;;0.60;;
6551;SDS011;3309;48.708;9.290;2022-07-22T11:55:58;0.52;;;0.52;;
6551;SDS011;3309;48.708;9.290;2022-07-22T11:58:38;0.60;;;0.60;;
6551;SDS011;3309;48.708;9.290;2022-07-22T12:01:06;0.60;;;0.60;;
6551;SDS011;3309;48.708;9.290;2022-07-22T12:03:41;0.60;;;0.60;;
6551;SDS011;3309;48.708;9.290;2022-07-22T12:06:11;0.52;;;0.52;;
6551;SDS011;3309;48.708;9.290;2022-07-22T12:08:39;0.50;;;0.50;;
6551;SDS011;3309;48.708;9.290;2022-07-22T12:11:17;0.55;;;0.55;;
6551;SDS011;3309;48.708;9.290;2022-07-22T12:13:45;0.57;;;0.57;;
6551;SDS011;3309;48.708;9.290;2022-07-22T12:16:19;0.60;;;0.60;;
6551;SDS011;3309;48.708;9.290;2022-07-22T12:18:59;0.50;;;0.50;;
6551;SDS011;3309;48.708;9.290;2022-07-22T12:21:30;0.60;;;0.60;;
6551;SDS011;3309;48.708;9.290;2022-07-22T12:24:03;0.40;;;0.40;;
6551;SDS011;3309;48.708;9.290;2022-07-22T12:26:44;0.50;;;0.50;;
6551;SDS011;3309;48.708;9.290;2022-07-22T12:31:54;0.50;;;0.50;;
6551;SDS011;3309;48.708;9.290;2022-07-22T12:36:57;0.65;;;0.65;;
6551;SDS011;3309;48.708;9.290;2022-07-22T12:39:27;0.60;;;0.60;;
6551;SDS011;3309;48.708;9.290;2022-07-22T12:44:29;0.50;;;0.50;;
6551;SDS011;3309;48.708;9.290;2022-07-22T12:46:55;0.40;;;0.40;;
6551;SDS011;3309;48.708;9.290;2022-07-22T12:49:24;0.50;;;0.50;;
6551;SDS011;3309;48.708;9.290;2022-07-22T12:52:09;0.52;;;0.52;;
6551;SDS011;3309;48.708;9.290;2022-07-22T12:54:38;0.50;;;0.50;;
6551;SDS011;3309;48.708;9.290;2022-07-22T12:57:05;0.40;;;0.40;;
6551;SDS011;3309;48.708;9.290;2022-07-22T12:59:32;0.50;;;0.50;;
6551;SDS011;3309;48.708;9.290;2022-07-22T13:01:58;0.60;;;0.60;;
6551;SDS011;3309;48.708;9.290;2022-07-22T13:04:24;0.60;;;0.60;;
6551;SDS011;3309;48.708;9.290;2022-07-22T13:06:50;0.50;;;0.50;;
6551;SDS011;3309;48.708;9.290;2022-07-22T13:09:15;0.60;;;0.60;;
6551;SDS011;3309;48.708;9.290;2022-07-22T13:11:41;0.60;;;0.60;;
6551;SDS011;3309;48.708;9.290;2022-07-22T13:14:08;0.40;;;0.40;;
6551;SDS011;3309;48.708;9.290;2022-07-22T13:16:34;0.47;;;0.47;;
6551;SDS011;3309;48.708;9.290;2022-07-22T13:19:00;0.35;;;0.35;;
6551;SDS011;3309;48.708;9.290;2022-07-22T13:21:26;0.47;;;0.47;;
6551;SDS011;3309;48.708;9.290;2022-07-22T13:23:51;0.50;;;0.50;;
6551;SDS011;3309;48.708;9.290;2022-07-22T13:26:17;0.50;;;0.50;;
6551;SDS011;3309;48.708;9.290;2022-07-22T13:28:42;0.55;;;0.55;;
6551;SDS011;3309;48.708;9.290;2022-07-22T13:31:08;0.35;;;0.35;;
6551;SDS011;3309;48.708;9.290;2022-07-22T13:33:34;0.60;;;0.60;;
6551;SDS011;3309;48.708;9.290;2022-07-22T13:35:59;0.40;;;0.40;;
6551;SDS011;3309;48.708;9.290;2022-07-22T13:38:26;0.40;;;0.40;;
6551;SDS011;3309;48.708;9.290;2022-07-22T13:40:51;0.47;;;0.47;;
6551;SDS011;3309;48.708;9.290;2022-07-22T13:43:20;0.20;;;0.20;;
6551;SDS011;3309;48.708;9.290;2022-07-22T13:45:47;0.50;;;0.50;;
6551;SDS011;3309;48.708;9.290;2022-07-22T13:48:13;0.30;;;0.30;;
6551;SDS011;3309;48.708;9.290;2022-07-22T13:50:39;0.50;;;0.50;;
6551;SDS011;3309;48.708;9.290;2022-07-22T13:53:05;0.40;;;0.40;;
6551;SDS011;3309;48.708;9.290;2022-07-22T13:55:31;0.52;;;0.52;;
6551;SDS011;3309;48.708;9.290;2022-07-22T13:57:57;0.40;;;0.40;;
6551;SDS011;3309;48.708;9.290;2022-07-22T14:00:23;0.40;;;0.40;;
6551;SDS011;3309;48.708;9.290;2022-07-22T14:02:49;0.40;;;0.40;;
6551;SDS011;3309;48.708;9.290;2022-07-22T14:05:14;0.43;;;0.43;;
6551;SDS011;3309;48.708;9.290;2022-07-22T14:07:40;0.43;;;0.43;;
6551;SDS011;3309;48.708;9.290;2022-07-22T14:10:06;0.30;;;0.30;;
6551;SDS011;3309;48.708;9.290;2022-07-22T14:12:32;0.20;;;0.20;;
6551;SDS011;3309;48.708;9.290;2022-07-22T14:14:58;0.40;;;0.40;;
6551;SDS011;3309;48.708;9.290;2022-07-22T14:17:23;0.17;;;0.17;;
6551;SDS011;3309;48.708;9.290;2022-07-22T14:19:49;0.43;;;0.43;;
6551;SDS011;3309;48.708;9.290;2022-07-22T14:22:14;0.20;;;0.20;;
6551;SDS011;3309;48.708;9.290;2022-07-22T14:24:40;0.30;;;0.30;;
6551;SDS011;3309;48.708;9.290;2022-07-22T14:27:06;0.30;;;0.30;;
6551;SDS011;3309;48.708;9.290;2022-07-22T14:29:31;0.20;;;0.20;;
6551;SDS011;3309;48.708;9.290;2022-07-22T14:31:57;0.38;;;0.38;;
6551;SDS011;3309;48.708;9.290;2022-07-22T14:34:22;0.40;;;0.40;;
6551;SDS011;3309;48.708;9.290;2022-07-22T14:36:48;0.38;;;0.38;;
6551;SDS011;3309;48.708;9.290;2022-07-22T14:39:14;0.30;;;0.30;;
6551;SDS011;3309;48.708;9.290;2022-07-22T14:41:40;0.25;;;0.25;;
6551;SDS011;3309;48.708;9.290;2022-07-22T14:44:05;0.30;;;0.30;;
6551;SDS011;3309;48.708;9.290;2022-07-22T14:46:31;0.20;;;0.20;;
6551;SDS011;3309;48.708;9.290;2022-07-22T14:48:57;0.40;;;0.40;;
6551;SDS011;3309;48.708;9.290;2022-07-22T14:51:23;0.28;;;0.28;;
6551;SDS011;3309;48.708;9.290;2022-07-22T14:53:48;0.10;;;0.10;;
6551;SDS011;3309;48.708;9.290;2022-07-22T14:56:15;0.35;;;0.35;;
6551;SDS011;3309;48.708;9.290;2022-07-22T14:58:41;0.40;;;0.40;;
6551;SDS011;3309;48.708;9.290;2022-07-22T15:01:06;0.40;;;0.40;;
6551;SDS011;3309;48.708;9.290;2022-07-22T15:03:32;0.30;;;0.30;;
6551;SDS011;3309;48.708;9.290;2022-07-22T15:05:57;0.45;;;0.45;;
6551;SDS011;3309;48.708;9.290;2022-07-22T15:08:23;0.40;;;0.40;;
6551;SDS011;3309;48.708;9.290;2022-07-22T15:10:48;0.30;;;0.30;;
6551;SDS011;3309;48.708;9.290;2022-07-22T15:13:14;0.22;;;0.22;;
6551;SDS011;3309;48.708;9.290;2022-07-22T15:15:39;0.20;;;0.20;;
6551;SDS011;3309;48.708;9.290;2022-07-22T15:18:05;0.40;;;0.40;;
6551;SDS011;3309;48.708;9.290;2022-07-22T15:20:31;0.50;;;0.50;;
6551;SDS011;3309;48.708;9.290;2022-07-22T15:22:57;0.10;;;0.10;;
6551;SDS011;3309;48.708;9.290;2022-07-22T15:25:22;0.40;;;0.40;;
6551;SDS011;3309;48.708;9.290;2022-07-22T15:27:48;0.50;;;0.50;;
6551;SDS011;3309;48.708;9.290;2022-07-22T15:30:14;0.43;;;0.43;;
6551;SDS011;3309;48.708;9.290;2022-07-22T15:32:40;0.40;;;0.40;;
6551;SDS011;3309;48.708;9.290;2022-07-22T15:35:06;0.25;;;0.25;;
6551;SDS011;3309;48.708;9.290;2022-07-22T15:37:32;0.38;;;0.38;;
6551;SDS011;3309;48.708;9.290;2022-07-22T15:39:58;0.40;;;0.40;;
6551;SDS011;3309;48.708;9.290;2022-07-22T15:42:23;0.30;;;0.30;;
6551;SDS011;3309;48.708;9.290;2022-07-22T15:44:49;0.40;;;0.40;;
6551;SDS011;3309;48.708;9.290;2022-07-22T15:47:14;0.52;;;0.52;;